sensor_id;sensor_type;location;lat;lon;timestamp;P1;durP1;ratioP1;P2;durP2;ratioP2
45909;SDS011;31622;55.416;37.840;2024-02-21T00:02:10;2.55;;;1.70;;
45909;SDS011;31622;55.416;37.840;2024-02-21T00:04:35;11.35;;;2.00;;
45909;SDS011;31622;55.416;37.840;2024-02-21T00:07:01;5.57;;;1.77;;
45909;SDS011;31622;55.416;37.840;2024-02-21T00:09:27;13.50;;;2.63;;
45909;SDS011;31622;55.416;37.840;2024-02-21T00:11:53;5.20;;;1.90;;
45909;SDS011;31622;55.416;37.840;2024-02-21T00:14:18;4.13;;;2.00;;
45909;SDS011;31622;55.416;37.840;2024-02-21T00:16:44;5.05;;;2.08;;
45909;SDS011;31622;55.416;37.840;2024-02-21T00:19:10;4.93;;;1.70;;
45909;SDS011;31622;55.416;37.840;2024-02-21T00:21:35;3.45;;;1.85;;
45909;SDS011;31622;55.416;37.840;2024-02-21T00:24:01;2.53;;;1.77;;
45909;SDS011;31622;55.416;37.840;2024-02-21T00:26:27;2.85;;;1.83;;
45909;SDS011;31622;55.416;37.840;2024-02-21T00:28:52;2.60;;;1.60;;
45909;SDS011;31622;55.416;37.840;2024-02-21T00:31:18;3.05;;;1.35;;
45909;SDS011;31622;55.416;37.840;2024-02-21T00:33:44;2.47;;;1.73;;
45909;SDS011;31622;55.416;37.840;2024-02-21T00:36:09;2.72;;;1.50;;
45909;SDS011;31622;55.416;37.840;2024-02-21T00:38:35;3.05;;;1.77;;
45909;SDS011;31622;55.416;37.840;2024-02-21T00:41:01;2.28;;;1.52;;
45909;SDS011;31622;55.416;37.840;2024-02-21T00:43:26;1.95;;;1.50;;
45909;SDS011;31622;55.416;37.840;2024-02-21T00:45:52;2.38;;;1.70;;
45909;SDS011;31622;55.416;37.840;2024-02-21T00:48:18;2.88;;;1.38;;
45909;SDS011;31622;55.416;37.840;2024-02-21T00:50:44;4.28;;;1.67;;
45909;SDS011;31622;55.416;37.840;2024-02-21T00:53:09;2.75;;;1.52;;
45909;SDS011;31622;55.416;37.840;2024-02-21T00:55:35;4.28;;;1.75;;
45909;SDS011;31622;55.416;37.840;2024-02-21T00:58:01;2.28;;;1.50;;
45909;SDS011;31622;55.416;37.840;2024-02-21T01:00:26;2.85;;;1.90;;
45909;SDS011;31622;55.416;37.840;2024-02-21T01:02:52;3.70;;;1.63;;
45909;SDS011;31622;55.416;37.840;2024-02-21T01:05:18;4.22;;;1.50;;
45909;SDS011;31622;55.416;37.840;2024-02-21T01:07:45;3.70;;;1.73;;
45909;SDS011;31622;55.416;37.840;2024-02-21T01:10:10;2.65;;;1.70;;
45909;SDS011;31622;55.416;37.840;2024-02-21T01:12:36;2.35;;;1.55;;
45909;SDS011;31622;55.416;37.840;2024-02-21T01:15:02;25.75;;;2.13;;
45909;SDS011;31622;55.416;37.840;2024-02-21T01:17:29;4.78;;;1.80;;
45909;SDS011;31622;55.416;37.840;2024-02-21T01:19:54;8.77;;;1.65;;
45909;SDS011;31622;55.416;37.840;2024-02-21T01:22:20;3.33;;;1.88;;
45909;SDS011;31622;55.416;37.840;2024-02-21T01:24:46;8.98;;;1.75;;
45909;SDS011;31622;55.416;37.840;2024-02-21T01:27:11;2.47;;;1.45;;
45909;SDS011;31622;55.416;37.840;2024-02-21T01:29:37;3.88;;;1.73;;
45909;SDS011;31622;55.416;37.840;2024-02-21T01:32:03;2.60;;;1.55;;
45909;SDS011;31622;55.416;37.840;2024-02-21T01:34:29;2.92;;;1.83;;
45909;SDS011;31622;55.416;37.840;2024-02-21T01:36:54;2.72;;;1.60;;
45909;SDS011;31622;55.416;37.840;2024-02-21T01:39:20;2.10;;;1.48;;
45909;SDS011;31622;55.416;37.840;2024-02-21T01:41:46;2.75;;;1.63;;
45909;SDS011;31622;55.416;37.840;2024-02-21T01:44:12;2.05;;;1.48;;
45909;SDS011;31622;55.416;37.840;2024-02-21T01:46:38;2.70;;;1.90;;
45909;SDS011;31622;55.416;37.840;2024-02-21T01:49:03;2.03;;;1.50;;
45909;SDS011;31622;55.416;37.840;2024-02-21T01:51:30;4.25;;;1.52;;
45909;SDS011;31622;55.416;37.840;2024-02-21T01:53:55;2.38;;;1.48;;
45909;SDS011;31622;55.416;37.840;2024-02-21T01:56:22;2.97;;;1.80;;
45909;SDS011;31622;55.416;37.840;2024-02-21T01:58:48;2.65;;;1.30;;
45909;SDS011;31622;55.416;37.840;2024-02-21T02:01:13;2.80;;;1.60;;
45909;SDS011;31622;55.416;37.840;2024-02-21T02:03:39;2.10;;;1.50;;
45909;SDS011;31622;55.416;37.840;2024-02-21T02:06:06;2.20;;;1.40;;
45909;SDS011;31622;55.416;37.840;2024-02-21T02:08:34;2.13;;;1.65;;
45909;SDS011;31622;55.416;37.840;2024-02-21T02:11:00;2.28;;;1.73;;
45909;SDS011;31622;55.416;37.840;2024-02-21T02:13:26;3.20;;;1.73;;
45909;SDS011;31622;55.416;37.840;2024-02-21T02:15:52;3.13;;;1.98;;
45909;SDS011;31622;55.416;37.840;2024-02-21T02:18:19;2.75;;;1.63;;
45909;SDS011;31622;55.416;37.840;2024-02-21T02:20:45;2.13;;;1.60;;
45909;SDS011;31622;55.416;37.840;2024-02-21T02:25:41;2.20;;;1.67;;
45909;SDS011;31622;55.416;37.840;2024-02-21T02:28:14;2.42;;;1.77;;
45909;SDS011;31622;55.416;37.840;2024-02-21T02:30:40;2.38;;;1.83;;
45909;SDS011;31622;55.416;37.840;2024-02-21T02:33:06;3.20;;;2.00;;
45909;SDS011;31622;55.416;37.840;2024-02-21T02:35:32;2.38;;;1.90;;
45909;SDS011;31622;55.416;37.840;2024-02-21T02:37:58;2.25;;;1.60;;
45909;SDS011;31622;55.416;37.840;2024-02-21T02:40:24;2.05;;;1.55;;
45909;SDS011;31622;55.416;37.840;2024-02-21T02:42:50;2.42;;;1.73;;
45909;SDS011;31622;55.416;37.840;2024-02-21T02:45:16;2.58;;;1.70;;
45909;SDS011;31622;55.416;37.840;2024-02-21T02:47:45;2.28;;;1.42;;
45909;SDS011;31622;55.416;37.840;2024-02-21T02:50:11;2.55;;;1.75;;
45909;SDS011;31622;55.416;37.840;2024-02-21T02:52:37;6.28;;;1.70;;
45909;SDS011;31622;55.416;37.840;2024-02-21T02:55:03;2.88;;;1.92;;
45909;SDS011;31622;55.416;37.840;2024-02-21T02:57:30;2.72;;;1.75;;
45909;SDS011;31622;55.416;37.840;2024-02-21T02:59:56;2.97;;;1.80;;
45909;SDS011;31622;55.416;37.840;2024-02-21T03:02:21;3.08;;;1.83;;
45909;SDS011;31622;55.416;37.840;2024-02-21T03:04:47;2.95;;;1.90;;
45909;SDS011;31622;55.416;37.840;2024-02-21T03:07:14;2.80;;;1.80;;
45909;SDS011;31622;55.416;37.840;2024-02-21T03:09:40;3.17;;;1.90;;
45909;SDS011;31622;55.416;37.840;2024-02-21T03:12:08;2.90;;;2.15;;
45909;SDS011;31622;55.416;37.840;2024-02-21T03:14:34;2.65;;;1.90;;
45909;SDS011;31622;55.416;37.840;2024-02-21T03:17:00;4.57;;;2.20;;
45909;SDS011;31622;55.416;37.840;2024-02-21T03:19:26;2.83;;;1.70;;
45909;SDS011;31622;55.416;37.840;2024-02-21T03:21:52;4.28;;;2.35;;
45909;SDS011;31622;55.416;37.840;2024-02-21T03:24:18;5.28;;;2.13;;
45909;SDS011;31622;55.416;37.840;2024-02-21T03:26:44;2.78;;;1.90;;
45909;SDS011;31622;55.416;37.840;2024-02-21T03:29:11;3.33;;;1.80;;
45909;SDS011;31622;55.416;37.840;2024-02-21T03:31:37;4.45;;;2.53;;
45909;SDS011;31622;55.416;37.840;2024-02-21T03:34:03;4.63;;;2.05;;
45909;SDS011;31622;55.416;37.840;2024-02-21T03:36:28;3.40;;;2.15;;
45909;SDS011;31622;55.416;37.840;2024-02-21T03:38:54;4.18;;;2.30;;
45909;SDS011;31622;55.416;37.840;2024-02-21T03:41:20;5.25;;;2.53;;
45909;SDS011;31622;55.416;37.840;2024-02-21T03:43:46;5.35;;;2.53;;
45909;SDS011;31622;55.416;37.840;2024-02-21T03:46:11;4.25;;;2.35;;
45909;SDS011;31622;55.416;37.840;2024-02-21T03:48:37;4.05;;;2.45;;
45909;SDS011;31622;55.416;37.840;2024-02-21T03:51:03;4.43;;;2.40;;
45909;SDS011;31622;55.416;37.840;2024-02-21T03:53:29;6.63;;;2.47;;
45909;SDS011;31622;55.416;37.840;2024-02-21T03:55:55;5.32;;;2.40;;
45909;SDS011;31622;55.416;37.840;2024-02-21T03:58:21;5.05;;;2.42;;
45909;SDS011;31622;55.416;37.840;2024-02-21T04:00:47;4.50;;;2.40;;
45909;SDS011;31622;55.416;37.840;2024-02-21T04:03:13;5.25;;;2.58;;
45909;SDS011;31622;55.416;37.840;2024-02-21T04:05:39;4.25;;;2.40;;
45909;SDS011;31622;55.416;37.840;2024-02-21T04:08:05;4.78;;;2.40;;
45909;SDS011;31622;55.416;37.840;2024-02-21T04:10:31;4.32;;;2.50;;
45909;SDS011;31622;55.416;37.840;2024-02-21T04:12:57;4.80;;;2.42;;
45909;SDS011;31622;55.416;37.840;2024-02-21T04:15:23;5.20;;;2.33;;
45909;SDS011;31622;55.416;37.840;2024-02-21T04:17:48;3.63;;;2.53;;
45909;SDS011;31622;55.416;37.840;2024-02-21T04:20:14;3.50;;;2.33;;
45909;SDS011;31622;55.416;37.840;2024-02-21T04:22:44;3.83;;;2.33;;
45909;SDS011;31622;55.416;37.840;2024-02-21T04:25:10;5.07;;;2.50;;
45909;SDS011;31622;55.416;37.840;2024-02-21T04:27:36;3.35;;;2.42;;
45909;SDS011;31622;55.416;37.840;2024-02-21T04:30:03;5.18;;;2.55;;
45909;SDS011;31622;55.416;37.840;2024-02-21T04:32:29;4.05;;;1.85;;
45909;SDS011;31622;55.416;37.840;2024-02-21T04:34:55;4.05;;;2.03;;
45909;SDS011;31622;55.416;37.840;2024-02-21T04:37:21;2.92;;;1.83;;
45909;SDS011;31622;55.416;37.840;2024-02-21T04:39:47;3.95;;;2.30;;
45909;SDS011;31622;55.416;37.840;2024-02-21T04:42:14;3.80;;;2.20;;
45909;SDS011;31622;55.416;37.840;2024-02-21T04:44:40;4.57;;;2.42;;
45909;SDS011;31622;55.416;37.840;2024-02-21T04:47:06;3.78;;;2.45;;
45909;SDS011;31622;55.416;37.840;2024-02-21T04:49:32;12.05;;;2.92;;
45909;SDS011;31622;55.416;37.840;2024-02-21T04:51:58;5.10;;;2.33;;
45909;SDS011;31622;55.416;37.840;2024-02-21T04:54:24;5.50;;;2.60;;
45909;SDS011;31622;55.416;37.840;2024-02-21T04:56:50;6.03;;;2.72;;
45909;SDS011;31622;55.416;37.840;2024-02-21T04:59:16;5.55;;;2.92;;
45909;SDS011;31622;55.416;37.840;2024-02-21T05:01:42;9.52;;;2.90;;
45909;SDS011;31622;55.416;37.840;2024-02-21T05:04:07;3.72;;;2.70;;
45909;SDS011;31622;55.416;37.840;2024-02-21T05:06:39;7.35;;;2.92;;
45909;SDS011;31622;55.416;37.840;2024-02-21T05:09:06;6.75;;;2.90;;
45909;SDS011;31622;55.416;37.840;2024-02-21T05:11:32;6.45;;;2.75;;
45909;SDS011;31622;55.416;37.840;2024-02-21T05:13:57;7.18;;;2.38;;
45909;SDS011;31622;55.416;37.840;2024-02-21T05:16:23;4.18;;;2.63;;
45909;SDS011;31622;55.416;37.840;2024-02-21T05:18:49;4.97;;;2.53;;
45909;SDS011;31622;55.416;37.840;2024-02-21T05:21:14;3.65;;;2.55;;
45909;SDS011;31622;55.416;37.840;2024-02-21T05:23:40;7.60;;;3.13;;
45909;SDS011;31622;55.416;37.840;2024-02-21T05:26:06;5.03;;;2.38;;
45909;SDS011;31622;55.416;37.840;2024-02-21T05:28:32;4.18;;;2.50;;
45909;SDS011;31622;55.416;37.840;2024-02-21T05:30:58;4.60;;;2.67;;
45909;SDS011;31622;55.416;37.840;2024-02-21T05:33:24;4.38;;;2.58;;
45909;SDS011;31622;55.416;37.840;2024-02-21T05:35:50;4.95;;;2.17;;
45909;SDS011;31622;55.416;37.840;2024-02-21T05:38:15;4.93;;;2.45;;
45909;SDS011;31622;55.416;37.840;2024-02-21T05:40:41;7.75;;;2.63;;
45909;SDS011;31622;55.416;37.840;2024-02-21T05:43:07;4.72;;;2.50;;
45909;SDS011;31622;55.416;37.840;2024-02-21T05:45:33;3.25;;;2.40;;
45909;SDS011;31622;55.416;37.840;2024-02-21T05:47:59;3.03;;;2.42;;
45909;SDS011;31622;55.416;37.840;2024-02-21T05:50:26;3.28;;;2.33;;
45909;SDS011;31622;55.416;37.840;2024-02-21T05:52:54;4.93;;;2.40;;
45909;SDS011;31622;55.416;37.840;2024-02-21T05:55:21;3.10;;;2.30;;
45909;SDS011;31622;55.416;37.840;2024-02-21T05:57:47;4.20;;;2.38;;
45909;SDS011;31622;55.416;37.840;2024-02-21T06:00:13;5.25;;;3.35;;
45909;SDS011;31622;55.416;37.840;2024-02-21T06:02:39;3.85;;;2.40;;
45909;SDS011;31622;55.416;37.840;2024-02-21T06:05:05;3.33;;;2.25;;
45909;SDS011;31622;55.416;37.840;2024-02-21T06:07:34;3.92;;;2.60;;
45909;SDS011;31622;55.416;37.840;2024-02-21T06:10:01;3.88;;;2.63;;
45909;SDS011;31622;55.416;37.840;2024-02-21T06:12:27;3.90;;;2.60;;
45909;SDS011;31622;55.416;37.840;2024-02-21T06:14:53;3.50;;;2.58;;
45909;SDS011;31622;55.416;37.840;2024-02-21T06:17:19;5.10;;;2.50;;
45909;SDS011;31622;55.416;37.840;2024-02-21T06:19:44;5.47;;;2.65;;
45909;SDS011;31622;55.416;37.840;2024-02-21T06:22:10;6.60;;;2.95;;
45909;SDS011;31622;55.416;37.840;2024-02-21T06:24:37;4.10;;;2.55;;
45909;SDS011;31622;55.416;37.840;2024-02-21T06:27:04;3.50;;;2.60;;
45909;SDS011;31622;55.416;37.840;2024-02-21T06:29:33;4.05;;;2.63;;
45909;SDS011;31622;55.416;37.840;2024-02-21T06:31:59;3.97;;;3.00;;
45909;SDS011;31622;55.416;37.840;2024-02-21T06:34:25;5.50;;;2.78;;
45909;SDS011;31622;55.416;37.840;2024-02-21T06:36:51;4.93;;;2.78;;
45909;SDS011;31622;55.416;37.840;2024-02-21T06:39:17;4.05;;;2.65;;
45909;SDS011;31622;55.416;37.840;2024-02-21T06:41:42;4.32;;;2.80;;
45909;SDS011;31622;55.416;37.840;2024-02-21T06:44:08;4.50;;;2.92;;
45909;SDS011;31622;55.416;37.840;2024-02-21T06:46:34;6.68;;;2.88;;
45909;SDS011;31622;55.416;37.840;2024-02-21T06:49:00;5.50;;;3.00;;
45909;SDS011;31622;55.416;37.840;2024-02-21T06:51:26;4.70;;;3.50;;
45909;SDS011;31622;55.416;37.840;2024-02-21T06:53:52;6.25;;;3.08;;
45909;SDS011;31622;55.416;37.840;2024-02-21T06:56:18;4.25;;;3.05;;
45909;SDS011;31622;55.416;37.840;2024-02-21T06:58:44;3.78;;;3.00;;
45909;SDS011;31622;55.416;37.840;2024-02-21T07:01:10;4.40;;;3.20;;
45909;SDS011;31622;55.416;37.840;2024-02-21T07:03:36;4.07;;;3.15;;
45909;SDS011;31622;55.416;37.840;2024-02-21T07:06:01;6.10;;;3.45;;
45909;SDS011;31622;55.416;37.840;2024-02-21T07:08:27;21.35;;;5.25;;
45909;SDS011;31622;55.416;37.840;2024-02-21T07:10:53;22.73;;;6.97;;
45909;SDS011;31622;55.416;37.840;2024-02-21T07:13:18;27.77;;;7.40;;
45909;SDS011;31622;55.416;37.840;2024-02-21T07:15:44;48.78;;;13.93;;
45909;SDS011;31622;55.416;37.840;2024-02-21T07:18:10;70.38;;;18.83;;
45909;SDS011;31622;55.416;37.840;2024-02-21T07:20:35;73.25;;;21.85;;
45909;SDS011;31622;55.416;37.840;2024-02-21T07:23:06;84.45;;;24.98;;
45909;SDS011;31622;55.416;37.840;2024-02-21T07:25:32;87.65;;;24.02;;
45909;SDS011;31622;55.416;37.840;2024-02-21T07:27:58;82.53;;;24.77;;
45909;SDS011;31622;55.416;37.840;2024-02-21T07:30:24;91.88;;;25.65;;
45909;SDS011;31622;55.416;37.840;2024-02-21T07:32:50;91.57;;;26.92;;
45909;SDS011;31622;55.416;37.840;2024-02-21T07:35:17;85.43;;;25.23;;
45909;SDS011;31622;55.416;37.840;2024-02-21T07:37:43;86.57;;;24.52;;
45909;SDS011;31622;55.416;37.840;2024-02-21T07:40:15;67.85;;;22.25;;
45909;SDS011;31622;55.416;37.840;2024-02-21T07:42:41;70.68;;;21.70;;
45909;SDS011;31622;55.416;37.840;2024-02-21T07:45:07;63.75;;;21.15;;
45909;SDS011;31622;55.416;37.840;2024-02-21T07:47:34;74.80;;;24.70;;
45909;SDS011;31622;55.416;37.840;2024-02-21T07:50:00;77.75;;;24.02;;
45909;SDS011;31622;55.416;37.840;2024-02-21T07:52:26;77.18;;;23.83;;
45909;SDS011;31622;55.416;37.840;2024-02-21T07:54:51;69.50;;;22.50;;
45909;SDS011;31622;55.416;37.840;2024-02-21T07:57:17;67.15;;;22.58;;
45909;SDS011;31622;55.416;37.840;2024-02-21T07:59:43;59.33;;;20.33;;
45909;SDS011;31622;55.416;37.840;2024-02-21T08:02:09;57.35;;;19.92;;
45909;SDS011;31622;55.416;37.840;2024-02-21T08:04:35;54.90;;;18.40;;
45909;SDS011;31622;55.416;37.840;2024-02-21T08:07:01;51.30;;;17.67;;
45909;SDS011;31622;55.416;37.840;2024-02-21T08:09:29;47.63;;;16.77;;
45909;SDS011;31622;55.416;37.840;2024-02-21T08:11:55;51.90;;;17.60;;
45909;SDS011;31622;55.416;37.840;2024-02-21T08:14:21;43.75;;;15.70;;
45909;SDS011;31622;55.416;37.840;2024-02-21T08:16:47;44.50;;;14.82;;
45909;SDS011;31622;55.416;37.840;2024-02-21T08:19:13;39.55;;;14.60;;
45909;SDS011;31622;55.416;37.840;2024-02-21T08:21:39;41.13;;;14.45;;
45909;SDS011;31622;55.416;37.840;2024-02-21T08:24:05;37.38;;;14.18;;
45909;SDS011;31622;55.416;37.840;2024-02-21T08:26:30;39.63;;;14.50;;
45909;SDS011;31622;55.416;37.840;2024-02-21T08:28:56;35.08;;;14.43;;
45909;SDS011;31622;55.416;37.840;2024-02-21T08:31:26;32.83;;;13.38;;
45909;SDS011;31622;55.416;37.840;2024-02-21T08:33:59;31.67;;;12.02;;
45909;SDS011;31622;55.416;37.840;2024-02-21T08:36:32;28.38;;;10.48;;
45909;SDS011;31622;55.416;37.840;2024-02-21T08:38:59;28.10;;;11.90;;
45909;SDS011;31622;55.416;37.840;2024-02-21T08:41:26;26.52;;;10.50;;
45909;SDS011;31622;55.416;37.840;2024-02-21T08:43:52;30.90;;;10.02;;
45909;SDS011;31622;55.416;37.840;2024-02-21T08:46:19;26.42;;;10.45;;
45909;SDS011;31622;55.416;37.840;2024-02-21T08:48:46;23.83;;;9.07;;
45909;SDS011;31622;55.416;37.840;2024-02-21T08:51:15;21.20;;;8.43;;
45909;SDS011;31622;55.416;37.840;2024-02-21T08:53:41;20.58;;;8.85;;
45909;SDS011;31622;55.416;37.840;2024-02-21T08:56:07;18.77;;;7.90;;
45909;SDS011;31622;55.416;37.840;2024-02-21T08:58:33;23.58;;;9.10;;
45909;SDS011;31622;55.416;37.840;2024-02-21T09:01:00;27.08;;;9.23;;
45909;SDS011;31622;55.416;37.840;2024-02-21T09:03:26;23.65;;;9.43;;
45909;SDS011;31622;55.416;37.840;2024-02-21T09:05:52;19.83;;;8.52;;
45909;SDS011;31622;55.416;37.840;2024-02-21T09:08:18;20.30;;;8.40;;
45909;SDS011;31622;55.416;37.840;2024-02-21T09:10:44;23.75;;;8.32;;
45909;SDS011;31622;55.416;37.840;2024-02-21T09:13:10;21.90;;;7.47;;
45909;SDS011;31622;55.416;37.840;2024-02-21T09:15:35;17.65;;;7.38;;
45909;SDS011;31622;55.416;37.840;2024-02-21T09:18:01;23.75;;;8.25;;
45909;SDS011;31622;55.416;37.840;2024-02-21T09:20:28;19.08;;;7.03;;
45909;SDS011;31622;55.416;37.840;2024-02-21T09:22:54;16.75;;;7.55;;
45909;SDS011;31622;55.416;37.840;2024-02-21T09:25:20;16.45;;;6.97;;
45909;SDS011;31622;55.416;37.840;2024-02-21T09:27:46;15.45;;;7.35;;
45909;SDS011;31622;55.416;37.840;2024-02-21T09:30:12;19.70;;;8.93;;
45909;SDS011;31622;55.416;37.840;2024-02-21T09:32:38;20.83;;;9.95;;
45909;SDS011;31622;55.416;37.840;2024-02-21T09:35:04;20.98;;;10.68;;
45909;SDS011;31622;55.416;37.840;2024-02-21T09:37:32;23.02;;;12.07;;
45909;SDS011;31622;55.416;37.840;2024-02-21T09:39:58;22.52;;;13.07;;
45909;SDS011;31622;55.416;37.840;2024-02-21T09:42:27;19.30;;;11.68;;
45909;SDS011;31622;55.416;37.840;2024-02-21T09:45:08;20.00;;;11.68;;
45909;SDS011;31622;55.416;37.840;2024-02-21T09:50:08;18.48;;;11.85;;
45909;SDS011;31622;55.416;37.840;2024-02-21T09:52:34;22.30;;;12.98;;
45909;SDS011;31622;55.416;37.840;2024-02-21T09:55:01;21.17;;;11.95;;
45909;SDS011;31622;55.416;37.840;2024-02-21T09:57:27;20.02;;;11.40;;
45909;SDS011;31622;55.416;37.840;2024-02-21T09:59:53;17.75;;;10.68;;
45909;SDS011;31622;55.416;37.840;2024-02-21T10:02:21;17.42;;;11.15;;
45909;SDS011;31622;55.416;37.840;2024-02-21T10:04:47;18.00;;;11.10;;
45909;SDS011;31622;55.416;37.840;2024-02-21T10:07:12;17.10;;;10.68;;
45909;SDS011;31622;55.416;37.840;2024-02-21T10:09:38;14.15;;;9.88;;
45909;SDS011;31622;55.416;37.840;2024-02-21T10:12:09;17.25;;;10.48;;
45909;SDS011;31622;55.416;37.840;2024-02-21T10:14:36;15.18;;;9.70;;
45909;SDS011;31622;55.416;37.840;2024-02-21T10:17:02;14.45;;;10.05;;
45909;SDS011;31622;55.416;37.840;2024-02-21T10:19:29;15.95;;;10.82;;
45909;SDS011;31622;55.416;37.840;2024-02-21T10:22:01;15.20;;;11.10;;
45909;SDS011;31622;55.416;37.840;2024-02-21T10:24:37;17.63;;;13.13;;
45909;SDS011;31622;55.416;37.840;2024-02-21T10:27:09;21.07;;;15.83;;
45909;SDS011;31622;55.416;37.840;2024-02-21T10:29:36;23.25;;;16.00;;
45909;SDS011;31622;55.416;37.840;2024-02-21T10:32:09;23.70;;;16.67;;
45909;SDS011;31622;55.416;37.840;2024-02-21T10:34:37;22.13;;;17.58;;
45909;SDS011;31622;55.416;37.840;2024-02-21T10:37:04;25.05;;;16.90;;
45909;SDS011;31622;55.416;37.840;2024-02-21T10:39:33;21.15;;;16.67;;
45909;SDS011;31622;55.416;37.840;2024-02-21T10:42:01;21.58;;;17.58;;
45909;SDS011;31622;55.416;37.840;2024-02-21T10:44:31;22.02;;;16.75;;
45909;SDS011;31622;55.416;37.840;2024-02-21T10:46:59;20.20;;;16.17;;
45909;SDS011;31622;55.416;37.840;2024-02-21T10:49:25;22.17;;;16.95;;
45909;SDS011;31622;55.416;37.840;2024-02-21T10:54:56;20.45;;;14.55;;
45909;SDS011;31622;55.416;37.840;2024-02-21T10:57:24;22.88;;;15.43;;
45909;SDS011;31622;55.416;37.840;2024-02-21T10:59:50;24.20;;;14.07;;
45909;SDS011;31622;55.416;37.840;2024-02-21T11:02:16;26.85;;;13.52;;
45909;SDS011;31622;55.416;37.840;2024-02-21T11:04:42;22.65;;;13.73;;
45909;SDS011;31622;55.416;37.840;2024-02-21T11:07:08;24.17;;;13.43;;
45909;SDS011;31622;55.416;37.840;2024-02-21T11:09:34;20.02;;;12.00;;
45909;SDS011;31622;55.416;37.840;2024-02-21T11:12:01;24.60;;;12.77;;
45909;SDS011;31622;55.416;37.840;2024-02-21T11:14:28;19.45;;;12.20;;
45909;SDS011;31622;55.416;37.840;2024-02-21T11:16:57;17.15;;;10.85;;
45909;SDS011;31622;55.416;37.840;2024-02-21T11:19:27;17.42;;;10.98;;
45909;SDS011;31622;55.416;37.840;2024-02-21T11:21:54;18.58;;;10.30;;
45909;SDS011;31622;55.416;37.840;2024-02-21T11:24:27;15.57;;;9.85;;
45909;SDS011;31622;55.416;37.840;2024-02-21T11:27:08;18.27;;;10.05;;
45909;SDS011;31622;55.416;37.840;2024-02-21T11:29:39;14.45;;;8.45;;
45909;SDS011;31622;55.416;37.840;2024-02-21T11:32:15;18.58;;;8.93;;
45909;SDS011;31622;55.416;37.840;2024-02-21T11:34:52;12.93;;;8.15;;
45909;SDS011;31622;55.416;37.840;2024-02-21T11:37:29;13.40;;;7.82;;
45909;SDS011;31622;55.416;37.840;2024-02-21T11:39:56;11.35;;;7.32;;
45909;SDS011;31622;55.416;37.840;2024-02-21T11:42:22;15.80;;;7.28;;
45909;SDS011;31622;55.416;37.840;2024-02-21T11:44:47;9.98;;;6.93;;
45909;SDS011;31622;55.416;37.840;2024-02-21T11:47:14;9.85;;;6.53;;
45909;SDS011;31622;55.416;37.840;2024-02-21T11:49:46;10.30;;;6.70;;
45909;SDS011;31622;55.416;37.840;2024-02-21T11:52:15;10.65;;;6.45;;
45909;SDS011;31622;55.416;37.840;2024-02-21T11:54:41;10.20;;;6.15;;
45909;SDS011;31622;55.416;37.840;2024-02-21T11:57:07;10.27;;;5.90;;
45909;SDS011;31622;55.416;37.840;2024-02-21T11:59:33;11.20;;;5.78;;
45909;SDS011;31622;55.416;37.840;2024-02-21T12:01:59;10.75;;;5.63;;
45909;SDS011;31622;55.416;37.840;2024-02-21T12:04:25;8.90;;;5.55;;
45909;SDS011;31622;55.416;37.840;2024-02-21T12:06:52;8.63;;;4.90;;
45909;SDS011;31622;55.416;37.840;2024-02-21T12:09:19;11.02;;;5.18;;
45909;SDS011;31622;55.416;37.840;2024-02-21T12:11:45;7.13;;;4.57;;
45909;SDS011;31622;55.416;37.840;2024-02-21T12:14:15;8.05;;;4.70;;
45909;SDS011;31622;55.416;37.840;2024-02-21T12:16:41;6.45;;;4.18;;
45909;SDS011;31622;55.416;37.840;2024-02-21T12:19:09;7.30;;;4.50;;
45909;SDS011;31622;55.416;37.840;2024-02-21T12:21:35;7.13;;;4.00;;
45909;SDS011;31622;55.416;37.840;2024-02-21T12:24:24;8.05;;;4.47;;
45909;SDS011;31622;55.416;37.840;2024-02-21T12:26:54;4.97;;;3.60;;
45909;SDS011;31622;55.416;37.840;2024-02-21T12:29:21;6.05;;;3.85;;
45909;SDS011;31622;55.416;37.840;2024-02-21T12:31:51;6.80;;;3.65;;
45909;SDS011;31622;55.416;37.840;2024-02-21T12:34:17;5.60;;;3.00;;
45909;SDS011;31622;55.416;37.840;2024-02-21T12:36:44;8.90;;;3.80;;
45909;SDS011;31622;55.416;37.840;2024-02-21T12:39:11;5.68;;;3.58;;
45909;SDS011;31622;55.416;37.840;2024-02-21T12:41:37;5.50;;;3.58;;
45909;SDS011;31622;55.416;37.840;2024-02-21T12:44:06;5.65;;;3.42;;
45909;SDS011;31622;55.416;37.840;2024-02-21T12:46:33;5.43;;;3.33;;
45909;SDS011;31622;55.416;37.840;2024-02-21T12:48:59;4.72;;;3.00;;
45909;SDS011;31622;55.416;37.840;2024-02-21T12:51:25;4.68;;;3.15;;
45909;SDS011;31622;55.416;37.840;2024-02-21T12:53:51;6.07;;;3.28;;
45909;SDS011;31622;55.416;37.840;2024-02-21T12:56:17;5.85;;;2.97;;
45909;SDS011;31622;55.416;37.840;2024-02-21T12:58:42;3.28;;;2.47;;
45909;SDS011;31622;55.416;37.840;2024-02-21T13:01:10;4.13;;;2.63;;
45909;SDS011;31622;55.416;37.840;2024-02-21T13:03:35;5.53;;;3.53;;
45909;SDS011;31622;55.416;37.840;2024-02-21T13:06:01;4.80;;;2.80;;
45909;SDS011;31622;55.416;37.840;2024-02-21T13:08:27;7.63;;;2.67;;
45909;SDS011;31622;55.416;37.840;2024-02-21T13:10:52;7.10;;;2.90;;
45909;SDS011;31622;55.416;37.840;2024-02-21T13:13:19;4.47;;;2.80;;
45909;SDS011;31622;55.416;37.840;2024-02-21T13:15:44;4.32;;;2.80;;
45909;SDS011;31622;55.416;37.840;2024-02-21T13:18:10;6.55;;;2.90;;
45909;SDS011;31622;55.416;37.840;2024-02-21T13:20:36;3.58;;;2.70;;
45909;SDS011;31622;55.416;37.840;2024-02-21T13:23:02;4.25;;;2.85;;
45909;SDS011;31622;55.416;37.840;2024-02-21T13:25:28;3.38;;;2.42;;
45909;SDS011;31622;55.416;37.840;2024-02-21T13:27:55;3.92;;;2.25;;
45909;SDS011;31622;55.416;37.840;2024-02-21T13:30:21;4.00;;;2.40;;
45909;SDS011;31622;55.416;37.840;2024-02-21T13:32:47;3.97;;;2.80;;
45909;SDS011;31622;55.416;37.840;2024-02-21T13:35:13;4.88;;;2.80;;
45909;SDS011;31622;55.416;37.840;2024-02-21T13:37:43;3.70;;;2.22;;
45909;SDS011;31622;55.416;37.840;2024-02-21T13:40:09;3.45;;;2.33;;
45909;SDS011;31622;55.416;37.840;2024-02-21T13:42:35;4.07;;;3.05;;
45909;SDS011;31622;55.416;37.840;2024-02-21T13:45:04;6.72;;;3.83;;
45909;SDS011;31622;55.416;37.840;2024-02-21T13:47:33;42.17;;;19.48;;
45909;SDS011;31622;55.416;37.840;2024-02-21T13:49:59;107.63;;;44.42;;
45909;SDS011;31622;55.416;37.840;2024-02-21T13:52:25;166.20;;;69.35;;
45909;SDS011;31622;55.416;37.840;2024-02-21T13:54:53;216.52;;;88.30;;
45909;SDS011;31622;55.416;37.840;2024-02-21T13:57:19;229.00;;;98.15;;
45909;SDS011;31622;55.416;37.840;2024-02-21T13:59:45;234.43;;;101.57;;
45909;SDS011;31622;55.416;37.840;2024-02-21T14:02:10;232.50;;;103.28;;
45909;SDS011;31622;55.416;37.840;2024-02-21T14:04:37;229.65;;;103.75;;
45909;SDS011;31622;55.416;37.840;2024-02-21T14:07:02;224.23;;;103.05;;
45909;SDS011;31622;55.416;37.840;2024-02-21T14:09:28;240.73;;;104.32;;
45909;SDS011;31622;55.416;37.840;2024-02-21T14:12:00;228.23;;;100.57;;
45909;SDS011;31622;55.416;37.840;2024-02-21T14:14:26;204.13;;;94.95;;
45909;SDS011;31622;55.416;37.840;2024-02-21T14:16:51;192.73;;;87.65;;
45909;SDS011;31622;55.416;37.840;2024-02-21T14:19:17;198.50;;;86.70;;
45909;SDS011;31622;55.416;37.840;2024-02-21T14:21:44;177.85;;;80.93;;
45909;SDS011;31622;55.416;37.840;2024-02-21T14:24:11;169.00;;;78.85;;
45909;SDS011;31622;55.416;37.840;2024-02-21T14:26:37;169.57;;;77.63;;
45909;SDS011;31622;55.416;37.840;2024-02-21T14:29:04;167.30;;;74.72;;
45909;SDS011;31622;55.416;37.840;2024-02-21T14:31:33;160.23;;;72.15;;